sensor_id;sensor_type;location;lat;lon;timestamp;P1;durP1;ratioP1;P2;durP2;ratioP2
21352;SDS011;10834;52.268;6.770;2023-08-17T00:01:33;4.45;;;2.60;;
21352;SDS011;10834;52.268;6.770;2023-08-17T00:04:17;4.78;;;2.55;;
21352;SDS011;10834;52.268;6.770;2023-08-17T00:07:02;2.80;;;2.13;;
21352;SDS011;10834;52.268;6.770;2023-08-17T00:09:46;7.63;;;3.00;;
21352;SDS011;10834;52.268;6.770;2023-08-17T00:12:31;5.82;;;2.47;;
21352;SDS011;10834;52.268;6.770;2023-08-17T00:15:15;4.40;;;2.80;;
21352;SDS011;10834;52.268;6.770;2023-08-17T00:17:59;4.93;;;2.33;;
21352;SDS011;10834;52.268;6.770;2023-08-17T00:20:43;5.63;;;2.70;;
21352;SDS011;10834;52.268;6.770;2023-08-17T00:23:28;7.40;;;2.85;;
21352;SDS011;10834;52.268;6.770;2023-08-17T00:26:12;5.50;;;2.17;;
21352;SDS011;10834;52.268;6.770;2023-08-17T00:28:57;6.05;;;2.88;;
21352;SDS011;10834;52.268;6.770;2023-08-17T00:31:41;6.65;;;3.58;;
21352;SDS011;10834;52.268;6.770;2023-08-17T00:34:25;3.25;;;2.42;;
21352;SDS011;10834;52.268;6.770;2023-08-17T00:37:09;2.40;;;2.13;;
21352;SDS011;10834;52.268;6.770;2023-08-17T00:39:54;3.30;;;2.38;;
21352;SDS011;10834;52.268;6.770;2023-08-17T00:42:38;4.18;;;3.03;;
21352;SDS011;10834;52.268;6.770;2023-08-17T00:45:23;2.38;;;1.85;;
21352;SDS011;10834;52.268;6.770;2023-08-17T00:48:08;6.50;;;2.13;;
21352;SDS011;10834;52.268;6.770;2023-08-17T00:50:52;7.07;;;2.78;;
21352;SDS011;10834;52.268;6.770;2023-08-17T00:53:37;4.47;;;2.28;;
21352;SDS011;10834;52.268;6.770;2023-08-17T00:56:21;6.18;;;2.42;;
21352;SDS011;10834;52.268;6.770;2023-08-17T00:59:05;6.47;;;2.28;;
21352;SDS011;10834;52.268;6.770;2023-08-17T01:01:49;2.55;;;2.13;;
21352;SDS011;10834;52.268;6.770;2023-08-17T01:04:35;6.03;;;2.53;;
21352;SDS011;10834;52.268;6.770;2023-08-17T01:07:18;8.95;;;2.70;;
21352;SDS011;10834;52.268;6.770;2023-08-17T01:10:04;4.13;;;2.63;;
21352;SDS011;10834;52.268;6.770;2023-08-17T01:12:59;4.63;;;2.72;;
21352;SDS011;10834;52.268;6.770;2023-08-17T01:15:55;5.78;;;2.22;;
21352;SDS011;10834;52.268;6.770;2023-08-17T01:18:41;3.75;;;1.88;;
21352;SDS011;10834;52.268;6.770;2023-08-17T01:21:32;7.97;;;2.33;;
21352;SDS011;10834;52.268;6.770;2023-08-17T01:24:24;3.40;;;2.30;;
21352;SDS011;10834;52.268;6.770;2023-08-17T01:27:08;5.28;;;2.20;;
21352;SDS011;10834;52.268;6.770;2023-08-17T01:29:52;4.35;;;2.38;;
21352;SDS011;10834;52.268;6.770;2023-08-17T01:32:39;3.72;;;2.25;;
21352;SDS011;10834;52.268;6.770;2023-08-17T01:35:44;3.72;;;2.00;;
21352;SDS011;10834;52.268;6.770;2023-08-17T01:38:45;3.20;;;2.00;;
21352;SDS011;10834;52.268;6.770;2023-08-17T01:41:30;5.90;;;2.50;;
21352;SDS011;10834;52.268;6.770;2023-08-17T01:44:16;4.50;;;2.38;;
21352;SDS011;10834;52.268;6.770;2023-08-17T01:47:00;7.72;;;2.75;;
21352;SDS011;10834;52.268;6.770;2023-08-17T01:49:44;4.38;;;2.40;;
21352;SDS011;10834;52.268;6.770;2023-08-17T01:52:28;6.72;;;2.13;;
21352;SDS011;10834;52.268;6.770;2023-08-17T01:55:13;5.93;;;2.08;;
21352;SDS011;10834;52.268;6.770;2023-08-17T01:57:58;4.63;;;2.30;;
21352;SDS011;10834;52.268;6.770;2023-08-17T02:00:41;3.85;;;2.00;;
21352;SDS011;10834;52.268;6.770;2023-08-17T02:03:26;7.20;;;2.53;;
21352;SDS011;10834;52.268;6.770;2023-08-17T02:06:12;8.30;;;2.63;;
21352;SDS011;10834;52.268;6.770;2023-08-17T02:08:57;4.28;;;2.67;;
21352;SDS011;10834;52.268;6.770;2023-08-17T02:11:42;3.00;;;2.05;;
21352;SDS011;10834;52.268;6.770;2023-08-17T02:14:26;5.00;;;2.08;;
21352;SDS011;10834;52.268;6.770;2023-08-17T02:17:10;5.15;;;2.20;;
21352;SDS011;10834;52.268;6.770;2023-08-17T02:19:54;5.10;;;2.35;;
21352;SDS011;10834;52.268;6.770;2023-08-17T02:22:38;3.63;;;2.00;;
21352;SDS011;10834;52.268;6.770;2023-08-17T02:25:22;7.45;;;2.53;;
21352;SDS011;10834;52.268;6.770;2023-08-17T02:28:07;2.97;;;2.30;;
21352;SDS011;10834;52.268;6.770;2023-08-17T02:30:57;4.45;;;2.30;;
21352;SDS011;10834;52.268;6.770;2023-08-17T02:33:42;3.75;;;2.20;;
21352;SDS011;10834;52.268;6.770;2023-08-17T02:36:27;4.85;;;2.30;;
21352;SDS011;10834;52.268;6.770;2023-08-17T02:39:11;2.92;;;1.77;;
21352;SDS011;10834;52.268;6.770;2023-08-17T02:41:55;6.20;;;2.13;;
21352;SDS011;10834;52.268;6.770;2023-08-17T02:44:39;3.80;;;1.90;;
21352;SDS011;10834;52.268;6.770;2023-08-17T02:47:23;4.32;;;2.05;;
21352;SDS011;10834;52.268;6.770;2023-08-17T02:50:07;6.00;;;2.50;;
21352;SDS011;10834;52.268;6.770;2023-08-17T02:52:52;3.72;;;1.80;;
21352;SDS011;10834;52.268;6.770;2023-08-17T02:55:35;3.50;;;1.98;;
21352;SDS011;10834;52.268;6.770;2023-08-17T02:58:19;3.13;;;2.03;;
21352;SDS011;10834;52.268;6.770;2023-08-17T03:01:04;4.90;;;3.42;;
21352;SDS011;10834;52.268;6.770;2023-08-17T03:03:48;3.75;;;2.47;;
21352;SDS011;10834;52.268;6.770;2023-08-17T03:06:32;6.78;;;2.38;;
21352;SDS011;10834;52.268;6.770;2023-08-17T03:09:16;6.25;;;2.40;;
21352;SDS011;10834;52.268;6.770;2023-08-17T03:12:00;5.07;;;2.45;;
21352;SDS011;10834;52.268;6.770;2023-08-17T03:14:44;6.30;;;3.08;;
21352;SDS011;10834;52.268;6.770;2023-08-17T03:17:28;4.38;;;2.22;;
21352;SDS011;10834;52.268;6.770;2023-08-17T03:20:13;4.75;;;2.55;;
21352;SDS011;10834;52.268;6.770;2023-08-17T03:22:57;5.05;;;2.60;;
21352;SDS011;10834;52.268;6.770;2023-08-17T03:25:41;4.22;;;2.13;;
21352;SDS011;10834;52.268;6.770;2023-08-17T03:28:25;5.07;;;2.45;;
21352;SDS011;10834;52.268;6.770;2023-08-17T03:31:10;4.95;;;1.90;;
21352;SDS011;10834;52.268;6.770;2023-08-17T03:33:54;3.28;;;2.40;;
21352;SDS011;10834;52.268;6.770;2023-08-17T03:36:39;4.53;;;2.15;;
21352;SDS011;10834;52.268;6.770;2023-08-17T03:39:23;4.77;;;2.37;;
21352;SDS011;10834;52.268;6.770;2023-08-17T03:42:07;5.30;;;2.70;;
21352;SDS011;10834;52.268;6.770;2023-08-17T03:44:51;2.53;;;2.10;;
21352;SDS011;10834;52.268;6.770;2023-08-17T03:47:36;6.32;;;2.20;;
21352;SDS011;10834;52.268;6.770;2023-08-17T03:50:20;6.13;;;2.38;;
21352;SDS011;10834;52.268;6.770;2023-08-17T03:53:05;3.83;;;2.55;;
21352;SDS011;10834;52.268;6.770;2023-08-17T03:55:49;6.20;;;2.30;;
21352;SDS011;10834;52.268;6.770;2023-08-17T03:58:34;9.27;;;3.97;;
21352;SDS011;10834;52.268;6.770;2023-08-17T04:01:18;7.05;;;2.70;;
21352;SDS011;10834;52.268;6.770;2023-08-17T04:04:02;6.33;;;2.60;;
21352;SDS011;10834;52.268;6.770;2023-08-17T04:06:46;4.63;;;2.10;;
21352;SDS011;10834;52.268;6.770;2023-08-17T04:09:31;5.43;;;2.67;;
21352;SDS011;10834;52.268;6.770;2023-08-17T04:12:17;4.35;;;2.03;;
21352;SDS011;10834;52.268;6.770;2023-08-17T04:15:02;5.35;;;2.25;;
21352;SDS011;10834;52.268;6.770;2023-08-17T04:17:47;5.43;;;2.10;;
21352;SDS011;10834;52.268;6.770;2023-08-17T04:20:31;9.77;;;2.90;;
21352;SDS011;10834;52.268;6.770;2023-08-17T04:23:15;3.78;;;1.77;;
21352;SDS011;10834;52.268;6.770;2023-08-17T04:25:59;3.83;;;2.40;;
21352;SDS011;10834;52.268;6.770;2023-08-17T04:28:44;3.15;;;2.80;;
21352;SDS011;10834;52.268;6.770;2023-08-17T04:31:28;4.10;;;3.15;;
21352;SDS011;10834;52.268;6.770;2023-08-17T04:34:12;5.55;;;2.67;;
21352;SDS011;10834;52.268;6.770;2023-08-17T04:36:56;6.13;;;2.40;;
21352;SDS011;10834;52.268;6.770;2023-08-17T04:39:40;3.80;;;2.35;;
21352;SDS011;10834;52.268;6.770;2023-08-17T04:42:24;9.23;;;2.55;;
21352;SDS011;10834;52.268;6.770;2023-08-17T04:45:09;5.40;;;2.17;;
21352;SDS011;10834;52.268;6.770;2023-08-17T04:47:53;4.45;;;2.50;;
21352;SDS011;10834;52.268;6.770;2023-08-17T04:50:37;3.33;;;2.58;;
21352;SDS011;10834;52.268;6.770;2023-08-17T04:53:21;5.78;;;2.45;;
21352;SDS011;10834;52.268;6.770;2023-08-17T04:56:06;4.30;;;2.60;;
21352;SDS011;10834;52.268;6.770;2023-08-17T04:58:50;5.90;;;2.28;;
21352;SDS011;10834;52.268;6.770;2023-08-17T05:01:34;5.33;;;2.37;;
21352;SDS011;10834;52.268;6.770;2023-08-17T05:04:19;5.00;;;2.50;;
21352;SDS011;10834;52.268;6.770;2023-08-17T05:07:03;7.75;;;2.20;;
21352;SDS011;10834;52.268;6.770;2023-08-17T05:09:47;5.15;;;2.30;;
21352;SDS011;10834;52.268;6.770;2023-08-17T05:12:31;6.32;;;2.47;;
21352;SDS011;10834;52.268;6.770;2023-08-17T05:15:15;9.18;;;2.60;;
21352;SDS011;10834;52.268;6.770;2023-08-17T05:17:59;3.95;;;2.45;;
21352;SDS011;10834;52.268;6.770;2023-08-17T05:20:43;4.63;;;3.00;;
21352;SDS011;10834;52.268;6.770;2023-08-17T05:23:27;5.97;;;2.25;;
21352;SDS011;10834;52.268;6.770;2023-08-17T05:26:11;6.25;;;2.97;;
21352;SDS011;10834;52.268;6.770;2023-08-17T05:28:56;7.75;;;3.22;;
21352;SDS011;10834;52.268;6.770;2023-08-17T05:31:40;8.45;;;3.40;;
21352;SDS011;10834;52.268;6.770;2023-08-17T05:34:24;11.68;;;4.15;;
21352;SDS011;10834;52.268;6.770;2023-08-17T05:37:08;6.32;;;3.20;;
21352;SDS011;10834;52.268;6.770;2023-08-17T05:39:52;7.78;;;3.85;;
21352;SDS011;10834;52.268;6.770;2023-08-17T05:42:36;7.40;;;3.13;;
21352;SDS011;10834;52.268;6.770;2023-08-17T05:45:20;7.55;;;2.95;;
21352;SDS011;10834;52.268;6.770;2023-08-17T05:48:04;9.02;;;2.53;;
21352;SDS011;10834;52.268;6.770;2023-08-17T05:50:50;5.28;;;2.35;;
21352;SDS011;10834;52.268;6.770;2023-08-17T05:53:34;7.05;;;2.58;;
21352;SDS011;10834;52.268;6.770;2023-08-17T05:56:18;5.40;;;3.72;;
21352;SDS011;10834;52.268;6.770;2023-08-17T05:59:02;4.93;;;2.50;;
21352;SDS011;10834;52.268;6.770;2023-08-17T06:01:47;5.05;;;2.42;;
21352;SDS011;10834;52.268;6.770;2023-08-17T06:04:31;3.42;;;2.55;;
21352;SDS011;10834;52.268;6.770;2023-08-17T06:07:15;5.10;;;2.70;;
21352;SDS011;10834;52.268;6.770;2023-08-17T06:09:59;5.35;;;2.72;;
21352;SDS011;10834;52.268;6.770;2023-08-17T06:12:43;5.82;;;2.92;;
21352;SDS011;10834;52.268;6.770;2023-08-17T06:15:27;6.63;;;2.72;;
21352;SDS011;10834;52.268;6.770;2023-08-17T06:18:11;7.47;;;2.22;;
21352;SDS011;10834;52.268;6.770;2023-08-17T06:20:56;5.82;;;2.55;;
21352;SDS011;10834;52.268;6.770;2023-08-17T06:23:40;4.57;;;2.20;;
21352;SDS011;10834;52.268;6.770;2023-08-17T06:26:24;2.70;;;2.20;;
21352;SDS011;10834;52.268;6.770;2023-08-17T06:29:08;6.35;;;2.85;;
21352;SDS011;10834;52.268;6.770;2023-08-17T06:31:52;5.05;;;3.58;;
21352;SDS011;10834;52.268;6.770;2023-08-17T06:34:36;5.13;;;2.65;;
21352;SDS011;10834;52.268;6.770;2023-08-17T06:37:20;7.78;;;2.67;;
21352;SDS011;10834;52.268;6.770;2023-08-17T06:40:04;5.32;;;2.40;;
21352;SDS011;10834;52.268;6.770;2023-08-17T06:42:50;9.30;;;3.35;;
21352;SDS011;10834;52.268;6.770;2023-08-17T06:45:34;2.65;;;2.42;;
21352;SDS011;10834;52.268;6.770;2023-08-17T06:48:18;5.32;;;2.92;;
21352;SDS011;10834;52.268;6.770;2023-08-17T06:51:02;3.95;;;2.47;;
21352;SDS011;10834;52.268;6.770;2023-08-17T06:53:48;2.67;;;2.28;;
21352;SDS011;10834;52.268;6.770;2023-08-17T06:56:32;5.32;;;2.67;;
21352;SDS011;10834;52.268;6.770;2023-08-17T06:59:16;7.97;;;2.60;;
21352;SDS011;10834;52.268;6.770;2023-08-17T07:02:00;6.43;;;2.78;;
21352;SDS011;10834;52.268;6.770;2023-08-17T07:04:44;2.83;;;2.03;;
21352;SDS011;10834;52.268;6.770;2023-08-17T07:07:28;6.30;;;2.38;;
21352;SDS011;10834;52.268;6.770;2023-08-17T07:10:15;7.68;;;2.67;;
21352;SDS011;10834;52.268;6.770;2023-08-17T07:12:59;5.38;;;1.85;;
21352;SDS011;10834;52.268;6.770;2023-08-17T07:15:46;6.78;;;2.88;;
21352;SDS011;10834;52.268;6.770;2023-08-17T07:18:31;10.40;;;2.83;;
21352;SDS011;10834;52.268;6.770;2023-08-17T07:21:14;6.53;;;2.25;;
21352;SDS011;10834;52.268;6.770;2023-08-17T07:24:08;6.88;;;2.58;;
21352;SDS011;10834;52.268;6.770;2023-08-17T07:26:55;4.28;;;2.40;;
21352;SDS011;10834;52.268;6.770;2023-08-17T07:29:39;3.55;;;2.17;;
21352;SDS011;10834;52.268;6.770;2023-08-17T07:32:24;5.95;;;2.30;;
21352;SDS011;10834;52.268;6.770;2023-08-17T07:35:09;3.55;;;2.50;;
21352;SDS011;10834;52.268;6.770;2023-08-17T07:37:53;4.88;;;2.20;;
21352;SDS011;10834;52.268;6.770;2023-08-17T07:40:37;5.30;;;2.53;;
21352;SDS011;10834;52.268;6.770;2023-08-17T07:43:21;4.60;;;1.85;;
21352;SDS011;10834;52.268;6.770;2023-08-17T07:46:05;4.25;;;2.67;;
21352;SDS011;10834;52.268;6.770;2023-08-17T07:48:49;4.47;;;2.28;;
21352;SDS011;10834;52.268;6.770;2023-08-17T07:51:34;7.00;;;2.83;;
21352;SDS011;10834;52.268;6.770;2023-08-17T07:54:18;7.03;;;2.90;;
21352;SDS011;10834;52.268;6.770;2023-08-17T07:57:02;6.30;;;3.05;;
21352;SDS011;10834;52.268;6.770;2023-08-17T07:59:47;5.30;;;2.28;;
21352;SDS011;10834;52.268;6.770;2023-08-17T08:02:31;5.00;;;2.38;;
21352;SDS011;10834;52.268;6.770;2023-08-17T08:05:15;6.28;;;2.92;;
21352;SDS011;10834;52.268;6.770;2023-08-17T08:07:59;6.47;;;2.60;;
21352;SDS011;10834;52.268;6.770;2023-08-17T08:10:43;5.93;;;3.30;;
21352;SDS011;10834;52.268;6.770;2023-08-17T08:13:28;5.50;;;3.10;;
21352;SDS011;10834;52.268;6.770;2023-08-17T08:16:12;8.15;;;2.60;;
21352;SDS011;10834;52.268;6.770;2023-08-17T08:18:56;5.35;;;3.10;;
21352;SDS011;10834;52.268;6.770;2023-08-17T08:21:40;7.15;;;3.05;;
21352;SDS011;10834;52.268;6.770;2023-08-17T08:24:25;5.60;;;3.00;;
21352;SDS011;10834;52.268;6.770;2023-08-17T08:27:14;4.30;;;3.03;;
21352;SDS011;10834;52.268;6.770;2023-08-17T08:29:58;6.25;;;3.22;;
21352;SDS011;10834;52.268;6.770;2023-08-17T08:32:42;7.80;;;3.40;;
21352;SDS011;10834;52.268;6.770;2023-08-17T08:35:26;6.45;;;3.63;;
21352;SDS011;10834;52.268;6.770;2023-08-17T08:38:11;5.15;;;3.58;;
21352;SDS011;10834;52.268;6.770;2023-08-17T08:40:58;7.25;;;3.47;;
21352;SDS011;10834;52.268;6.770;2023-08-17T08:43:42;8.75;;;4.55;;
21352;SDS011;10834;52.268;6.770;2023-08-17T08:46:27;6.30;;;4.95;;
21352;SDS011;10834;52.268;6.770;2023-08-17T08:49:19;9.30;;;4.63;;
21352;SDS011;10834;52.268;6.770;2023-08-17T08:52:05;7.60;;;4.50;;
21352;SDS011;10834;52.268;6.770;2023-08-17T08:54:52;8.18;;;4.43;;
21352;SDS011;10834;52.268;6.770;2023-08-17T08:57:40;10.88;;;4.53;;
21352;SDS011;10834;52.268;6.770;2023-08-17T09:00:25;7.55;;;4.90;;
21352;SDS011;10834;52.268;6.770;2023-08-17T09:03:10;7.55;;;5.05;;
21352;SDS011;10834;52.268;6.770;2023-08-17T09:05:54;5.28;;;4.88;;
21352;SDS011;10834;52.268;6.770;2023-08-17T09:08:41;11.02;;;6.07;;
21352;SDS011;10834;52.268;6.770;2023-08-17T09:11:29;6.38;;;5.57;;
21352;SDS011;10834;52.268;6.770;2023-08-17T09:14:14;11.38;;;6.57;;
21352;SDS011;10834;52.268;6.770;2023-08-17T09:16:58;8.95;;;6.43;;
21352;SDS011;10834;52.268;6.770;2023-08-17T09:19:45;7.32;;;6.03;;
21352;SDS011;10834;52.268;6.770;2023-08-17T09:22:41;7.22;;;5.40;;
21352;SDS011;10834;52.268;6.770;2023-08-17T09:25:27;8.93;;;4.80;;
21352;SDS011;10834;52.268;6.770;2023-08-17T09:28:14;5.22;;;4.78;;
21352;SDS011;10834;52.268;6.770;2023-08-17T09:31:01;5.13;;;4.35;;
21352;SDS011;10834;52.268;6.770;2023-08-17T09:33:49;7.53;;;4.75;;
21352;SDS011;10834;52.268;6.770;2023-08-17T09:36:37;7.05;;;4.50;;
21352;SDS011;10834;52.268;6.770;2023-08-17T09:39:23;5.43;;;4.25;;
21352;SDS011;10834;52.268;6.770;2023-08-17T09:42:07;9.13;;;4.50;;
21352;SDS011;10834;52.268;6.770;2023-08-17T09:44:53;7.55;;;4.57;;
21352;SDS011;10834;52.268;6.770;2023-08-17T09:47:41;5.28;;;4.72;;
21352;SDS011;10834;52.268;6.770;2023-08-17T09:50:26;8.90;;;4.68;;
21352;SDS011;10834;52.268;6.770;2023-08-17T09:53:14;6.50;;;4.63;;
21352;SDS011;10834;52.268;6.770;2023-08-17T09:55:59;8.25;;;4.18;;
21352;SDS011;10834;52.268;6.770;2023-08-17T09:58:43;8.07;;;5.10;;
21352;SDS011;10834;52.268;6.770;2023-08-17T10:01:28;6.85;;;4.90;;
21352;SDS011;10834;52.268;6.770;2023-08-17T10:04:13;5.43;;;4.63;;
21352;SDS011;10834;52.268;6.770;2023-08-17T10:07:03;4.97;;;4.53;;
21352;SDS011;10834;52.268;6.770;2023-08-17T10:09:56;7.13;;;5.00;;
21352;SDS011;10834;52.268;6.770;2023-08-17T10:12:49;7.18;;;6.45;;
21352;SDS011;10834;52.268;6.770;2023-08-17T10:16:02;7.47;;;6.53;;
21352;SDS011;10834;52.268;6.770;2023-08-17T10:18:54;7.32;;;6.13;;
21352;SDS011;10834;52.268;6.770;2023-08-17T10:24:55;5.97;;;5.43;;
21352;SDS011;10834;52.268;6.770;2023-08-17T10:27:42;6.55;;;5.47;;
21352;SDS011;10834;52.268;6.770;2023-08-17T10:30:27;5.70;;;4.05;;
21352;SDS011;10834;52.268;6.770;2023-08-17T10:33:12;7.07;;;4.88;;
21352;SDS011;10834;52.268;6.770;2023-08-17T10:35:56;7.30;;;5.90;;
21352;SDS011;10834;52.268;6.770;2023-08-17T10:38:41;6.82;;;6.28;;
21352;SDS011;10834;52.268;6.770;2023-08-17T10:41:25;7.53;;;6.13;;
21352;SDS011;10834;52.268;6.770;2023-08-17T10:44:10;7.05;;;6.03;;
21352;SDS011;10834;52.268;6.770;2023-08-17T10:46:54;7.32;;;6.40;;
21352;SDS011;10834;52.268;6.770;2023-08-17T10:49:38;6.65;;;6.10;;
21352;SDS011;10834;52.268;6.770;2023-08-17T10:52:26;8.25;;;6.97;;
21352;SDS011;10834;52.268;6.770;2023-08-17T10:55:12;8.80;;;7.70;;
21352;SDS011;10834;52.268;6.770;2023-08-17T10:57:56;7.90;;;7.20;;
21352;SDS011;10834;52.268;6.770;2023-08-17T11:00:40;8.80;;;8.00;;
21352;SDS011;10834;52.268;6.770;2023-08-17T11:03:28;10.73;;;9.20;;
21352;SDS011;10834;52.268;6.770;2023-08-17T11:06:16;14.68;;;9.50;;
21352;SDS011;10834;52.268;6.770;2023-08-17T11:09:05;10.95;;;9.95;;
21352;SDS011;10834;52.268;6.770;2023-08-17T11:11:52;11.05;;;9.88;;
21352;SDS011;10834;52.268;6.770;2023-08-17T11:14:40;10.35;;;9.43;;
21352;SDS011;10834;52.268;6.770;2023-08-17T11:17:27;10.05;;;9.10;;
21352;SDS011;10834;52.268;6.770;2023-08-17T11:20:12;10.35;;;9.35;;
21352;SDS011;10834;52.268;6.770;2023-08-17T11:22:57;9.52;;;8.73;;
21352;SDS011;10834;52.268;6.770;2023-08-17T11:25:43;11.70;;;9.93;;
21352;SDS011;10834;52.268;6.770;2023-08-17T11:28:29;11.90;;;10.80;;
21352;SDS011;10834;52.268;6.770;2023-08-17T11:31:20;12.45;;;11.20;;
21352;SDS011;10834;52.268;6.770;2023-08-17T11:34:04;10.57;;;9.57;;
21352;SDS011;10834;52.268;6.770;2023-08-17T11:36:48;13.15;;;10.15;;
21352;SDS011;10834;52.268;6.770;2023-08-17T11:39:33;13.30;;;11.52;;
21352;SDS011;10834;52.268;6.770;2023-08-17T11:42:20;11.60;;;10.52;;
21352;SDS011;10834;52.268;6.770;2023-08-17T11:45:06;11.77;;;10.60;;
21352;SDS011;10834;52.268;6.770;2023-08-17T11:47:53;16.48;;;11.60;;
21352;SDS011;10834;52.268;6.770;2023-08-17T11:50:38;14.27;;;12.10;;
21352;SDS011;10834;52.268;6.770;2023-08-17T11:53:23;14.38;;;12.88;;
21352;SDS011;10834;52.268;6.770;2023-08-17T11:56:08;11.98;;;10.73;;
21352;SDS011;10834;52.268;6.770;2023-08-17T11:58:52;13.73;;;12.20;;
21352;SDS011;10834;52.268;6.770;2023-08-17T12:01:36;13.98;;;12.55;;
21352;SDS011;10834;52.268;6.770;2023-08-17T12:04:22;17.20;;;12.75;;
21352;SDS011;10834;52.268;6.770;2023-08-17T12:07:06;13.85;;;12.50;;
21352;SDS011;10834;52.268;6.770;2023-08-17T12:09:52;15.95;;;14.35;;
21352;SDS011;10834;52.268;6.770;2023-08-17T12:12:37;15.90;;;14.20;;
21352;SDS011;10834;52.268;6.770;2023-08-17T12:15:23;14.65;;;12.50;;
21352;SDS011;10834;52.268;6.770;2023-08-17T12:18:08;18.85;;;13.70;;
21352;SDS011;10834;52.268;6.770;2023-08-17T12:20:52;15.00;;;13.60;;
21352;SDS011;10834;52.268;6.770;2023-08-17T12:23:38;12.15;;;10.95;;
21352;SDS011;10834;52.268;6.770;2023-08-17T12:26:22;14.75;;;10.95;;
21352;SDS011;10834;52.268;6.770;2023-08-17T12:29:06;12.75;;;11.02;;
21352;SDS011;10834;52.268;6.770;2023-08-17T12:31:51;12.52;;;9.45;;
21352;SDS011;10834;52.268;6.770;2023-08-17T12:34:36;9.63;;;8.68;;
21352;SDS011;10834;52.268;6.770;2023-08-17T12:37:20;9.80;;;8.80;;
21352;SDS011;10834;52.268;6.770;2023-08-17T12:40:05;11.02;;;9.65;;
21352;SDS011;10834;52.268;6.770;2023-08-17T12:42:51;11.75;;;9.23;;
21352;SDS011;10834;52.268;6.770;2023-08-17T12:45:35;12.98;;;8.88;;
21352;SDS011;10834;52.268;6.770;2023-08-17T12:48:19;11.45;;;9.02;;
21352;SDS011;10834;52.268;6.770;2023-08-17T12:51:03;11.05;;;9.50;;
21352;SDS011;10834;52.268;6.770;2023-08-17T12:53:48;10.75;;;9.32;;
21352;SDS011;10834;52.268;6.770;2023-08-17T12:56:32;11.40;;;10.25;;
21352;SDS011;10834;52.268;6.770;2023-08-17T12:59:16;9.98;;;8.98;;
21352;SDS011;10834;52.268;6.770;2023-08-17T13:02:01;10.65;;;9.10;;
21352;SDS011;10834;52.268;6.770;2023-08-17T13:04:45;11.05;;;9.82;;
21352;SDS011;10834;52.268;6.770;2023-08-17T13:07:29;10.55;;;8.82;;
21352;SDS011;10834;52.268;6.770;2023-08-17T13:10:13;9.95;;;8.43;;
21352;SDS011;10834;52.268;6.770;2023-08-17T13:12:57;13.63;;;11.70;;
21352;SDS011;10834;52.268;6.770;2023-08-17T13:15:43;12.45;;;11.15;;
21352;SDS011;10834;52.268;6.770;2023-08-17T13:18:27;10.77;;;9.73;;
21352;SDS011;10834;52.268;6.770;2023-08-17T13:21:12;14.60;;;13.18;;
21352;SDS011;10834;52.268;6.770;2023-08-17T13:23:59;12.15;;;10.95;;
21352;SDS011;10834;52.268;6.770;2023-08-17T13:26:43;15.73;;;13.10;;
21352;SDS011;10834;52.268;6.770;2023-08-17T13:29:27;11.48;;;10.30;;
21352;SDS011;10834;52.268;6.770;2023-08-17T13:32:12;14.77;;;10.77;;
21352;SDS011;10834;52.268;6.770;2023-08-17T13:34:56;11.35;;;10.10;;
21352;SDS011;10834;52.268;6.770;2023-08-17T13:37:40;12.82;;;9.88;;
21352;SDS011;10834;52.268;6.770;2023-08-17T13:40:25;12.23;;;10.80;;
21352;SDS011;10834;52.268;6.770;2023-08-17T13:43:09;13.98;;;12.48;;
21352;SDS011;10834;52.268;6.770;2023-08-17T13:45:55;12.90;;;11.43;;
21352;SDS011;10834;52.268;6.770;2023-08-17T13:48:40;12.40;;;11.20;;
21352;SDS011;10834;52.268;6.770;2023-08-17T13:51:25;16.23;;;11.07;;
21352;SDS011;10834;52.268;6.770;2023-08-17T13:54:09;14.43;;;10.73;;
21352;SDS011;10834;52.268;6.770;2023-08-17T13:56:53;10.70;;;9.73;;
21352;SDS011;10834;52.268;6.770;2023-08-17T13:59:38;13.18;;;11.60;;
21352;SDS011;10834;52.268;6.770;2023-08-17T14:02:22;14.70;;;12.45;;
21352;SDS011;10834;52.268;6.770;2023-08-17T14:05:07;15.32;;;13.25;;
21352;SDS011;10834;52.268;6.770;2023-08-17T14:07:51;16.90;;;12.93;;
21352;SDS011;10834;52.268;6.770;2023-08-17T14:10:35;13.52;;;12.23;;
21352;SDS011;10834;52.268;6.770;2023-08-17T14:13:19;14.20;;;11.40;;
21352;SDS011;10834;52.268;6.770;2023-08-17T14:16:03;12.80;;;11.45;;
21352;SDS011;10834;52.268;6.770;2023-08-17T14:18:48;12.15;;;10.75;;
21352;SDS011;10834;52.268;6.770;2023-08-17T14:21:32;13.38;;;11.90;;
21352;SDS011;10834;52.268;6.770;2023-08-17T14:24:16;12.82;;;11.52;;
21352;SDS011;10834;52.268;6.770;2023-08-17T14:27:00;15.30;;;11.55;;
21352;SDS011;10834;52.268;6.770;2023-08-17T14:29:44;14.45;;;12.95;;
21352;SDS011;10834;52.268;6.770;2023-08-17T14:32:28;13.70;;;12.25;;
21352;SDS011;10834;52.268;6.770;2023-08-17T14:35:13;14.77;;;13.13;;
21352;SDS011;10834;52.268;6.770;2023-08-17T14:37:57;18.35;;;14.52;;
21352;SDS011;10834;52.268;6.770;2023-08-17T14:40:45;15.15;;;13.55;;
21352;SDS011;10834;52.268;6.770;2023-08-17T14:43:31;16.33;;;13.52;;
21352;SDS011;10834;52.268;6.770;2023-08-17T14:46:15;17.98;;;14.57;;
21352;SDS011;10834;52.268;6.770;2023-08-17T14:48:59;15.30;;;13.80;;
21352;SDS011;10834;52.268;6.770;2023-08-17T14:51:43;15.35;;;13.77;;
21352;SDS011;10834;52.268;6.770;2023-08-17T14:54:27;14.75;;;13.27;;
21352;SDS011;10834;52.268;6.770;2023-08-17T14:57:12;13.85;;;12.38;;
21352;SDS011;10834;52.268;6.770;2023-08-17T14:59:56;13.82;;;11.65;;
21352;SDS011;10834;52.268;6.770;2023-08-17T15:02:40;13.32;;;11.80;;
21352;SDS011;10834;52.268;6.770;2023-08-17T15:05:24;13.82;;;12.25;;
21352;SDS011;10834;52.268;6.770;2023-08-17T15:08:08;12.35;;;11.13;;
21352;SDS011;10834;52.268;6.770;2023-08-17T15:10:52;12.93;;;11.65;;
21352;SDS011;10834;52.268;6.770;2023-08-17T15:13:37;13.63;;;10.77;;
21352;SDS011;10834;52.268;6.770;2023-08-17T15:16:21;15.75;;;11.93;;
21352;SDS011;10834;52.268;6.770;2023-08-17T15:19:10;14.48;;;12.13;;
21352;SDS011;10834;52.268;6.770;2023-08-17T15:21:54;14.43;;;12.95;;
21352;SDS011;10834;52.268;6.770;2023-08-17T15:24:39;13.18;;;11.80;;
21352;SDS011;10834;52.268;6.770;2023-08-17T15:27:23;14.43;;;12.90;;
21352;SDS011;10834;52.268;6.770;2023-08-17T15:30:08;13.82;;;12.02;;
21352;SDS011;10834;52.268;6.770;2023-08-17T15:32:52;12.38;;;11.07;;
21352;SDS011;10834;52.268;6.770;2023-08-17T15:35:36;15.38;;;12.55;;
21352;SDS011;10834;52.268;6.770;2023-08-17T15:38:20;13.80;;;11.35;;
21352;SDS011;10834;52.268;6.770;2023-08-17T15:41:04;12.50;;;10.93;;
21352;SDS011;10834;52.268;6.770;2023-08-17T15:43:48;12.65;;;11.15;;
21352;SDS011;10834;52.268;6.770;2023-08-17T15:46:32;13.02;;;10.52;;
21352;SDS011;10834;52.268;6.770;2023-08-17T15:49:16;11.80;;;10.38;;
21352;SDS011;10834;52.268;6.770;2023-08-17T15:52:01;11.55;;;10.00;;
21352;SDS011;10834;52.268;6.770;2023-08-17T15:54:46;11.30;;;10.10;;
21352;SDS011;10834;52.268;6.770;2023-08-17T15:57:30;13.05;;;10.75;;
21352;SDS011;10834;52.268;6.770;2023-08-17T16:00:14;13.63;;;11.45;;
21352;SDS011;10834;52.268;6.770;2023-08-17T16:02:58;15.80;;;12.38;;
21352;SDS011;10834;52.268;6.770;2023-08-17T16:05:42;13.88;;;10.60;;
21352;SDS011;10834;52.268;6.770;2023-08-17T16:08:26;15.20;;;10.45;;
21352;SDS011;10834;52.268;6.770;2023-08-17T16:11:10;12.05;;;10.90;;
21352;SDS011;10834;52.268;6.770;2023-08-17T16:13:55;15.70;;;11.23;;
21352;SDS011;10834;52.268;6.770;2023-08-17T16:16:40;14.68;;;10.77;;
21352;SDS011;10834;52.268;6.770;2023-08-17T16:19:24;12.27;;;11.05;;
21352;SDS011;10834;52.268;6.770;2023-08-17T16:22:08;11.90;;;10.80;;
21352;SDS011;10834;52.268;6.770;2023-08-17T16:24:52;14.75;;;13.25;;
21352;SDS011;10834;52.268;6.770;2023-08-17T16:27:36;10.65;;;9.75;;
21352;SDS011;10834;52.268;6.770;2023-08-17T16:30:21;12.50;;;11.20;;